createdAt,value
2018-04-28T00:00:01.198Z,72.01
2018-04-28T00:02:28.604Z,71.60
2018-04-28T00:04:56.010Z,71.97
2018-04-28T00:07:23.454Z,71.87
2018-04-28T00:09:50.867Z,72.49
2018-04-28T00:12:18.294Z,73.12
2018-04-28T00:14:45.716Z,72.02
2018-04-28T00:17:16.905Z,72.74
2018-04-28T00:19:45.225Z,72.85
2018-04-28T00:22:22.407Z,73.31
2018-04-28T00:24:54.218Z,73.19
2018-04-28T00:27:26.661Z,72.88
2018-04-28T00:29:58.010Z,72.79
2018-04-28T00:32:25.421Z,72.80
2018-04-28T00:34:55.833Z,73.75
2018-04-28T00:40:23.964Z,73.13
2018-04-28T00:42:53.508Z,73.30
2018-04-28T00:45:24.354Z,72.58
2018-04-28T00:47:51.759Z,72.55
2018-04-28T00:50:19.963Z,74.41
2018-04-28T00:52:47.401Z,74.16
2018-04-28T00:55:24.051Z,74.65
2018-04-28T00:58:00.184Z,74.55
2018-04-28T01:00:37.143Z,73.06
2018-04-28T01:03:05.097Z,72.52
2018-04-28T01:05:32.507Z,72.98
2018-04-28T01:07:59.916Z,72.64
2018-04-28T01:10:28.935Z,73.55
2018-04-28T01:12:57.365Z,72.11
2018-04-28T01:15:26.135Z,70.65
2018-04-28T01:17:54.224Z,70.85
2018-04-28T01:20:26.284Z,69.83
2018-04-28T01:22:53.691Z,68.44
2018-04-28T01:25:21.803Z,67.20
2018-04-28T01:27:52.916Z,66.12
2018-04-28T01:30:26.159Z,64.78
2018-04-28T01:36:23.575Z,63.88
2018-04-28T01:38:51.537Z,62.59
2018-04-28T01:41:26.993Z,62.35
2018-04-28T01:44:12.123Z,62.31
2018-04-28T01:46:42.400Z,61.44
2018-04-28T01:49:21.485Z,60.26
2018-04-28T01:51:51.818Z,60.14
2018-04-28T01:54:36.732Z,60.09
2018-04-28T01:57:09.740Z,59.40
2018-04-28T01:59:45.838Z,59.19
2018-04-28T02:02:21.966Z,58.67
2018-04-28T02:04:59.347Z,58.62
2018-04-28T02:07:40.075Z,58.58
2018-04-28T02:10:07.478Z,58.49
2018-04-28T02:12:39.580Z,58.80
2018-04-28T02:15:14.604Z,58.20
2018-04-28T02:17:52.597Z,57.79
2018-04-28T02:20:25.964Z,57.84
2018-04-28T02:23:09.087Z,57.91
2018-04-28T02:25:40.104Z,57.80
2018-04-28T02:28:10.225Z,57.89
2018-04-28T02:33:40.073Z,57.60
2018-04-28T02:36:18.111Z,57.63
2018-04-28T02:38:46.600Z,57.71
2018-04-28T02:41:21.886Z,57.89
2018-04-28T02:43:55.983Z,57.96
2018-04-28T02:49:25.528Z,58.07
2018-04-28T02:51:59.593Z,58.14
2018-04-28T02:54:48.324Z,58.31
2018-04-28T02:57:27.413Z,58.51
2018-04-28T03:02:56.948Z,58.79
2018-04-28T03:05:33.550Z,59.36
2018-04-28T03:08:23.639Z,59.18
2018-04-28T03:10:56.596Z,59.40
2018-04-28T03:13:25.957Z,59.83
2018-04-28T03:16:03.123Z,59.73
2018-04-28T03:18:33.496Z,59.81
2018-04-28T03:21:01.237Z,60.02
2018-04-28T03:23:34.711Z,60.37
2018-04-28T03:26:06.692Z,60.47
2018-04-28T03:28:39.656Z,60.50
2018-04-28T03:31:07.937Z,60.42
2018-04-28T03:33:45.859Z,60.58
2018-04-28T03:39:14.676Z,61.10
2018-04-28T03:41:48.173Z,61.39
2018-04-28T03:44:16.528Z,61.20
2018-04-28T03:46:45.743Z,61.29
2018-04-28T03:49:27.972Z,61.42
2018-04-28T03:52:13.180Z,61.40
2018-04-28T03:54:41.404Z,61.29
2018-04-28T03:57:33.826Z,61.36
2018-04-28T04:00:12.980Z,61.41
2018-04-28T04:02:52.322Z,61.14
2018-04-28T04:05:24.327Z,61.16
2018-04-28T04:07:52.428Z,61.14
2018-04-28T04:10:28.503Z,61.12
2018-04-28T04:13:12.812Z,61.07
2018-04-28T04:15:52.067Z,61.15
2018-04-28T04:18:31.392Z,61.47
2018-04-28T04:21:03.127Z,61.14
2018-04-28T04:26:41.795Z,61.13
2018-04-28T04:32:14.021Z,60.87
2018-04-28T04:37:49.436Z,60.60
2018-04-28T04:43:24.518Z,60.01
2018-04-28T04:46:04.000Z,59.74
2018-04-28T04:51:30.181Z,58.49
2018-04-28T04:54:15.297Z,57.45
2018-04-28T05:00:06.325Z,55.91
2018-04-28T05:02:52.411Z,55.23
2018-04-28T05:05:39.257Z,53.58
2018-04-28T05:08:18.510Z,51.34
2018-04-28T05:14:04.995Z,48.10
2018-04-28T05:16:33.959Z,47.01
2018-04-28T05:19:08.346Z,47.34
2018-04-28T05:24:52.064Z,45.35
2018-04-28T05:27:20.160Z,45.78
2018-04-28T05:29:56.192Z,43.25
2018-04-28T05:35:50.722Z,43.03
2018-04-28T05:38:23.981Z,44.02
2018-04-28T05:44:04.064Z,44.66
2018-04-28T05:46:36.064Z,45.26
2018-04-28T05:49:06.036Z,45.34
2018-04-28T05:54:42.628Z,46.50
2018-04-28T05:57:21.936Z,46.02
2018-04-28T06:00:01.021Z,44.59
2018-04-28T06:02:58.818Z,42.88
2018-04-28T06:08:38.781Z,41.70
2018-04-28T06:11:17.776Z,39.89
2018-04-28T06:13:57.077Z,39.12
2018-04-28T06:16:34.131Z,38.83
2018-04-28T06:19:09.029Z,37.70
2018-04-28T06:21:36.435Z,37.13
2018-04-28T06:24:03.859Z,35.42
2018-04-28T06:26:31.275Z,35.97
2018-04-28T06:28:58.708Z,34.74
2018-04-28T06:31:26.108Z,35.60
2018-04-28T06:33:53.797Z,35.79
2018-04-28T06:36:21.204Z,35.83
2018-04-28T06:38:48.617Z,37.32
2018-04-28T06:41:16.046Z,36.85
2018-04-28T06:43:43.466Z,36.92
2018-04-28T06:46:10.880Z,37.63
2018-04-28T06:48:38.305Z,36.72
2018-04-28T06:51:05.789Z,35.93
2018-04-28T06:53:33.171Z,35.61
2018-04-28T06:56:00.594Z,36.41
2018-04-28T06:58:28.017Z,36.27
2018-04-28T07:00:55.423Z,36.88
2018-04-28T07:03:22.818Z,37.03
2018-04-28T07:05:50.232Z,37.48
2018-04-28T07:08:17.646Z,38.09
2018-04-28T07:10:45.058Z,38.04
2018-04-28T07:13:12.468Z,37.39
2018-04-28T07:15:39.879Z,36.94
2018-04-28T07:18:07.317Z,36.98
2018-04-28T07:20:34.717Z,36.63
2018-04-28T07:23:02.123Z,36.36
2018-04-28T07:25:29.544Z,36.82
2018-04-28T07:27:56.960Z,36.31
2018-04-28T07:30:24.403Z,35.99
2018-04-28T07:32:51.855Z,37.01
2018-04-28T07:35:19.276Z,37.35
2018-04-28T07:37:46.663Z,36.84
2018-04-28T07:40:14.081Z,37.01
2018-04-28T07:42:41.479Z,36.86
2018-04-28T07:45:08.902Z,37.44
2018-04-28T07:47:36.371Z,36.63
2018-04-28T07:50:03.716Z,36.34
2018-04-28T07:52:31.127Z,35.72
2018-04-28T07:54:58.827Z,35.03
2018-04-28T07:57:26.240Z,35.23
2018-04-28T07:59:53.656Z,34.70
2018-04-28T08:02:21.064Z,34.96
2018-04-28T08:04:48.492Z,34.83
2018-04-28T08:07:15.920Z,34.78
2018-04-28T08:09:43.341Z,34.19
2018-04-28T08:12:10.766Z,34.27
2018-04-28T08:14:38.172Z,34.83
2018-04-28T08:17:05.581Z,34.84
2018-04-28T08:19:32.985Z,34.29
2018-04-28T08:22:00.412Z,34.15
2018-04-28T08:24:27.819Z,34.51
2018-04-28T08:26:55.400Z,34.31
2018-04-28T08:29:22.800Z,35.19
2018-04-28T08:31:50.204Z,36.58
2018-04-28T08:34:17.696Z,36.77
2018-04-28T08:36:45.096Z,36.80
2018-04-28T08:39:12.601Z,37.18
2018-04-28T08:41:40.009Z,37.53
2018-04-28T08:44:07.415Z,37.23
2018-04-28T08:46:34.831Z,37.12
2018-04-28T08:49:02.231Z,37.20
2018-04-28T08:51:30.023Z,37.54
2018-04-28T08:53:57.427Z,38.13
2018-04-28T08:56:24.827Z,38.90
2018-04-28T08:58:52.406Z,38.09
2018-04-28T09:01:19.877Z,38.95
2018-04-28T09:03:47.367Z,38.20
2018-04-28T09:06:14.707Z,38.23
2018-04-28T09:08:42.109Z,38.80
2018-04-28T09:11:09.523Z,39.25
2018-04-28T09:13:36.932Z,39.12
2018-04-28T09:16:04.339Z,38.75
2018-04-28T09:18:31.996Z,37.49
2018-04-28T09:20:59.406Z,37.65
2018-04-28T09:23:26.816Z,37.23
2018-04-28T09:25:54.238Z,35.84
2018-04-28T09:28:21.691Z,34.37
2018-04-28T09:30:49.105Z,33.53
2018-04-28T09:33:16.509Z,33.86
2018-04-28T09:35:43.911Z,33.42
2018-04-28T09:38:11.623Z,32.56
2018-04-28T09:40:40.575Z,32.49
2018-04-28T09:43:08.192Z,32.22
2018-04-28T09:45:35.678Z,32.51
2018-04-28T09:48:03.073Z,33.29
2018-04-28T09:50:30.480Z,34.09
2018-04-28T09:52:57.899Z,35.86
2018-04-28T09:55:25.400Z,36.41
2018-04-28T09:58:04.691Z,36.81
2018-04-28T10:00:37.810Z,37.64
2018-04-28T10:03:05.264Z,38.64
2018-04-28T10:05:32.735Z,39.73
2018-04-28T10:08:00.183Z,38.13
2018-04-28T10:10:27.623Z,38.71
2018-04-28T10:12:55.030Z,38.36
2018-04-28T10:15:22.796Z,38.23
2018-04-28T10:17:50.196Z,38.47
2018-04-28T10:20:17.686Z,38.80
2018-04-28T10:22:45.055Z,39.05
2018-04-28T10:25:12.586Z,39.17
2018-04-28T10:27:39.977Z,39.24
2018-04-28T10:30:07.388Z,38.38
2018-04-28T10:32:35.108Z,38.39
2018-04-28T10:35:02.542Z,38.66
2018-04-28T10:37:29.952Z,39.40
2018-04-28T10:39:57.405Z,37.79
2018-04-28T10:42:24.796Z,37.71
2018-04-28T10:44:52.213Z,37.19
2018-04-28T10:47:19.603Z,36.92
2018-04-28T10:49:47.036Z,37.97
2018-04-28T10:52:14.461Z,38.13
2018-04-28T10:54:41.857Z,38.35
2018-04-28T10:57:09.390Z,37.46
2018-04-28T10:59:36.824Z,38.08
2018-04-28T11:02:04.241Z,37.82
2018-04-28T11:04:31.676Z,38.18
2018-04-28T11:06:59.098Z,38.78
2018-04-28T11:09:26.491Z,38.32
2018-04-28T11:11:53.920Z,38.77
2018-04-28T11:14:21.335Z,39.31
2018-04-28T11:16:48.755Z,39.84
2018-04-28T11:19:16.160Z,40.34
2018-04-28T11:21:43.591Z,40.08
2018-04-28T11:24:11.271Z,40.30
2018-04-28T11:26:38.675Z,40.16
2018-04-28T11:29:06.100Z,39.84
2018-04-28T11:31:33.523Z,40.32
2018-04-28T11:34:00.930Z,40.12
2018-04-28T11:36:28.395Z,40.40
2018-04-28T11:38:55.848Z,39.98
2018-04-28T11:41:24.041Z,40.38
2018-04-28T11:43:51.692Z,40.35
2018-04-28T11:46:19.488Z,40.25
2018-04-28T11:48:47.058Z,40.93
2018-04-28T11:51:15.681Z,39.95
2018-04-28T11:53:43.388Z,39.71
2018-04-28T11:56:11.040Z,40.74
2018-04-28T11:58:38.586Z,40.75
2018-04-28T12:01:06.936Z,41.23
2018-04-28T12:03:34.520Z,41.70
2018-04-28T12:06:02.208Z,41.60
2018-04-28T12:08:29.921Z,41.88
2018-04-28T12:10:58.308Z,42.40
2018-04-28T12:13:25.757Z,41.70
2018-04-28T12:15:53.664Z,42.16
2018-04-28T12:18:21.464Z,41.23
2018-04-28T12:20:50.418Z,40.98
2018-04-28T12:23:18.913Z,40.66
2018-04-28T12:25:46.622Z,41.51
2018-04-28T12:28:14.320Z,40.46
2018-04-28T12:30:42.464Z,40.59
2018-04-28T12:33:14.574Z,40.13
2018-04-28T12:35:42.211Z,39.88
2018-04-28T12:38:09.847Z,38.57
2018-04-28T12:40:39.934Z,38.49
2018-04-28T12:43:07.787Z,38.47
2018-04-28T12:45:36.181Z,38.07
2018-04-28T12:48:05.319Z,38.49
2018-04-28T12:50:37.048Z,37.32
2018-04-28T12:53:04.717Z,37.26
2018-04-28T12:55:32.255Z,37.04
2018-04-28T12:58:00.104Z,37.53
2018-04-28T13:00:27.888Z,38.06
2018-04-28T13:02:55.283Z,37.77
2018-04-28T13:05:22.693Z,37.91
2018-04-28T13:07:50.116Z,37.92
2018-04-28T13:10:17.508Z,38.05
2018-04-28T13:12:44.919Z,37.85
2018-04-28T13:15:12.324Z,37.38
2018-04-28T13:17:39.754Z,38.26
2018-04-28T13:20:07.233Z,37.39
2018-04-28T13:22:34.685Z,37.03
2018-04-28T13:25:02.413Z,37.83
2018-04-28T13:27:29.820Z,36.60
2018-04-28T13:29:57.228Z,36.33
2018-04-28T13:32:24.720Z,36.67
2018-04-28T13:34:52.117Z,35.33
2018-04-28T13:37:19.528Z,36.62
2018-04-28T13:39:46.946Z,36.87
2018-04-28T13:42:14.360Z,35.64
2018-04-28T13:44:41.855Z,36.32
2018-04-28T13:47:09.289Z,36.19
2018-04-28T13:49:36.680Z,36.58
2018-04-28T13:52:04.092Z,36.19
2018-04-28T13:54:31.493Z,36.14
2018-04-28T13:56:59.022Z,35.88
2018-04-28T13:59:26.451Z,35.55
2018-04-28T14:01:53.853Z,36.81
2018-04-28T14:04:21.869Z,35.29
2018-04-28T14:06:49.598Z,35.20
2018-04-28T14:09:17.272Z,34.86
2018-04-28T14:11:44.704Z,34.86
2018-04-28T14:14:12.190Z,35.67
2018-04-28T14:16:39.596Z,36.20
2018-04-28T14:19:07.671Z,36.14
2018-04-28T14:21:35.067Z,36.70
2018-04-28T14:24:07.100Z,35.97
2018-04-28T14:26:34.532Z,36.87
2018-04-28T14:29:02.754Z,37.18
2018-04-28T14:31:32.521Z,37.08
2018-04-28T14:34:00.772Z,37.29
2018-04-28T14:36:30.818Z,37.97
2018-04-28T14:38:58.221Z,37.97
2018-04-28T14:41:25.639Z,37.83
2018-04-28T14:43:53.101Z,38.29
2018-04-28T14:46:20.496Z,38.42
2018-04-28T14:48:48.256Z,39.19
2018-04-28T14:51:15.651Z,38.55
2018-04-28T14:53:43.063Z,39.18
2018-04-28T14:56:10.489Z,39.48
2018-04-28T14:58:38.092Z,39.36
2018-04-28T15:01:05.721Z,39.66
2018-04-28T15:03:33.292Z,39.37
2018-04-28T15:06:00.836Z,39.49
2018-04-28T15:08:30.075Z,39.09
2018-04-28T15:10:57.573Z,39.34
2018-04-28T15:13:25.218Z,39.15
2018-04-28T15:15:52.635Z,39.93
2018-04-28T15:18:20.053Z,39.66
2018-04-28T15:20:47.730Z,39.74
2018-04-28T15:23:15.194Z,39.63
2018-04-28T15:25:42.744Z,39.14
2018-04-28T15:28:10.209Z,39.70
2018-04-28T15:30:37.627Z,39.67
2018-04-28T15:33:05.028Z,39.53
2018-04-28T15:35:32.438Z,40.21
2018-04-28T15:37:59.891Z,40.00
2018-04-28T15:40:27.301Z,39.79
2018-04-28T15:42:54.730Z,39.74
2018-04-28T15:45:22.136Z,40.09
2018-04-28T15:47:49.545Z,40.35
2018-04-28T15:50:16.971Z,39.78
2018-04-28T15:52:44.364Z,40.12
2018-04-28T15:55:11.780Z,40.62
2018-04-28T15:57:39.202Z,41.32
2018-04-28T16:00:06.625Z,41.37
2018-04-28T16:02:34.855Z,41.07
2018-04-28T16:05:02.284Z,41.99
2018-04-28T16:07:29.702Z,41.56
2018-04-28T16:09:57.112Z,41.37
2018-04-28T16:12:24.524Z,41.45
2018-04-28T16:14:51.959Z,41.66
2018-04-28T16:17:19.360Z,41.97
2018-04-28T16:19:46.783Z,41.25
2018-04-28T16:22:14.187Z,41.78
2018-04-28T16:24:41.588Z,41.40
2018-04-28T16:27:09.002Z,41.25
2018-04-28T16:29:36.404Z,41.33
2018-04-28T16:32:03.824Z,41.84
2018-04-28T16:34:31.221Z,41.34
2018-04-28T16:36:58.636Z,41.17
2018-04-28T16:39:26.032Z,40.99
2018-04-28T16:41:53.444Z,41.24
2018-04-28T16:44:20.844Z,41.42
2018-04-28T16:46:48.260Z,41.45
2018-04-28T16:49:15.660Z,41.75
2018-04-28T16:51:43.079Z,41.84
2018-04-28T16:54:10.484Z,42.00
2018-04-28T16:56:37.887Z,42.20
2018-04-28T16:59:05.491Z,42.76
2018-04-28T17:01:32.871Z,43.04
2018-04-28T17:04:00.312Z,42.72
2018-04-28T17:06:28.428Z,43.13
2018-04-28T17:08:56.132Z,43.25
2018-04-28T17:11:23.529Z,43.37
2018-04-28T17:13:50.941Z,43.83
2018-04-28T17:16:18.360Z,43.44
2018-04-28T17:18:45.760Z,43.20
2018-04-28T17:21:13.154Z,43.82
2018-04-28T17:23:40.572Z,43.83
2018-04-28T17:26:07.987Z,43.96
2018-04-28T17:28:35.417Z,43.65
2018-04-28T17:31:02.872Z,43.68
2018-04-28T17:33:30.368Z,43.87
2018-04-28T17:35:57.952Z,43.88
2018-04-28T17:38:25.391Z,44.35
2018-04-28T17:40:52.822Z,44.48
2018-04-28T17:43:20.229Z,44.24
2018-04-28T17:45:47.684Z,44.74
2018-04-28T17:48:15.087Z,44.76
2018-04-28T17:50:42.491Z,45.06
2018-04-28T17:53:09.924Z,45.04
2018-04-28T17:55:37.333Z,45.12
2018-04-28T17:58:04.772Z,45.18
2018-04-28T18:00:32.197Z,45.42
2018-04-28T18:02:59.648Z,45.51
2018-04-28T18:05:27.059Z,45.41
2018-04-28T18:07:54.456Z,45.90
2018-04-28T18:10:21.891Z,45.86
2018-04-28T18:12:49.282Z,45.97
2018-04-28T18:15:16.697Z,46.00
2018-04-28T18:17:44.093Z,46.21
2018-04-28T18:20:11.492Z,46.21
2018-04-28T18:22:39.244Z,46.30
2018-04-28T18:25:06.656Z,46.23
2018-04-28T18:27:34.062Z,46.41
2018-04-28T18:30:01.484Z,46.43
2018-04-28T18:32:28.912Z,46.71
2018-04-28T18:34:56.329Z,47.01
2018-04-28T18:37:23.728Z,47.43
2018-04-28T18:39:51.450Z,46.81
2018-04-28T18:42:18.843Z,46.73
2018-04-28T18:44:46.245Z,46.70
2018-04-28T18:47:13.684Z,47.06
2018-04-28T18:49:41.209Z,47.32
2018-04-28T18:52:08.625Z,47.83
2018-04-28T18:54:36.064Z,48.07
2018-04-28T18:57:03.480Z,47.83
2018-04-28T18:59:30.910Z,48.43
2018-04-28T19:01:59.569Z,48.24
2018-04-28T19:04:26.997Z,48.02
2018-04-28T19:06:54.735Z,47.80
2018-04-28T19:09:22.172Z,48.10
2018-04-28T19:11:49.576Z,48.22
2018-04-28T19:14:16.985Z,48.46
2018-04-28T19:16:44.661Z,48.47
2018-04-28T19:19:12.049Z,48.65
2018-04-28T19:21:39.448Z,48.90
2018-04-28T19:24:06.901Z,49.20
2018-04-28T19:26:34.305Z,49.29
2018-04-28T19:29:01.759Z,49.31
2018-04-28T19:31:29.235Z,49.47
2018-04-28T19:33:56.640Z,49.20
2018-04-28T19:36:24.063Z,49.37
2018-04-28T19:38:51.472Z,50.08
2018-04-28T19:41:19.095Z,49.52
2018-04-28T19:43:46.513Z,50.20
2018-04-28T19:46:13.923Z,50.34
2018-04-28T19:48:41.385Z,49.75
2018-04-28T19:51:08.739Z,49.86
2018-04-28T19:53:36.179Z,50.19
2018-04-28T19:56:03.596Z,50.02
2018-04-28T19:58:31.295Z,50.03
2018-04-28T20:00:58.718Z,50.91
2018-04-28T20:03:26.137Z,50.95
2018-04-28T20:05:53.563Z,50.63
2018-04-28T20:08:21.028Z,51.28
2018-04-28T20:10:48.439Z,52.79
2018-04-28T20:13:15.868Z,53.76
2018-04-28T20:15:43.298Z,53.11
2018-04-28T20:18:10.752Z,54.36
2018-04-28T20:20:38.161Z,53.76
2018-04-28T20:23:17.504Z,54.46
2018-04-28T20:25:44.904Z,54.37
2018-04-28T20:28:12.320Z,54.58
2018-04-28T20:30:39.759Z,54.82
2018-04-28T20:33:07.179Z,55.19
2018-04-28T20:35:34.595Z,56.66
2018-04-28T20:38:02.017Z,56.05
2018-04-28T20:40:29.452Z,56.19
2018-04-28T20:42:56.959Z,56.36
2018-04-28T20:45:24.661Z,56.74
2018-04-28T20:47:52.109Z,56.69
2018-04-28T20:50:19.538Z,57.90
2018-04-28T20:52:46.965Z,57.36
2018-04-28T20:55:14.431Z,58.12
2018-04-28T20:57:41.862Z,58.29
2018-04-28T21:00:09.303Z,58.14
2018-04-28T21:02:36.736Z,58.13
2018-04-28T21:05:04.472Z,59.84
2018-04-28T21:07:31.916Z,59.06
2018-04-28T21:09:59.360Z,59.66
2018-04-28T21:12:26.844Z,59.42
2018-04-28T21:14:54.255Z,59.25
2018-04-28T21:17:21.700Z,59.78
2018-04-28T21:19:49.278Z,60.89
2018-04-28T21:22:16.700Z,59.41
2018-04-28T21:24:44.140Z,59.33
2018-04-28T21:27:11.564Z,59.37
2018-04-28T21:29:39.003Z,59.28
2018-04-28T21:32:06.417Z,59.23
2018-04-28T21:34:33.857Z,59.76
2018-04-28T21:37:01.287Z,59.93
2018-04-28T21:39:28.716Z,60.13
2018-04-28T21:41:56.157Z,59.83
2018-04-28T21:44:23.570Z,60.31
2018-04-28T21:46:51.703Z,59.71
2018-04-28T21:49:19.133Z,60.94
2018-04-28T21:51:46.581Z,60.61
2018-04-28T21:54:14.017Z,60.54
2018-04-28T21:56:41.467Z,60.36
2018-04-28T21:59:08.914Z,60.15
2018-04-28T22:01:36.311Z,60.09
2018-04-28T22:04:03.744Z,60.20
2018-04-28T22:06:31.159Z,60.08
2018-04-28T22:08:58.576Z,60.35
2018-04-28T22:11:26.000Z,60.81
2018-04-28T22:13:53.414Z,60.78
2018-04-28T22:16:20.856Z,60.91
2018-04-28T22:18:48.257Z,61.08
2018-04-28T22:21:15.683Z,60.83
2018-04-28T22:23:43.160Z,61.00
2018-04-28T22:26:10.597Z,60.66
2018-04-28T22:28:37.993Z,60.85
2018-04-28T22:31:05.691Z,61.49
2018-04-28T22:33:33.139Z,61.71
2018-04-28T22:36:00.549Z,61.91
2018-04-28T22:38:28.017Z,61.59
2018-04-28T22:40:55.432Z,61.33
2018-04-28T22:43:22.863Z,60.48
2018-04-28T22:45:50.279Z,60.17
2018-04-28T22:48:17.724Z,59.60
2018-04-28T22:50:45.128Z,59.22
2018-04-28T22:53:14.355Z,60.85
2018-04-28T22:55:41.789Z,62.94
2018-04-28T22:58:09.196Z,64.64
2018-04-28T23:00:42.552Z,66.17
2018-04-28T23:03:10.017Z,66.34
2018-04-28T23:05:37.521Z,67.55
2018-04-28T23:08:04.943Z,65.98
2018-04-28T23:10:32.344Z,66.40
2018-04-28T23:12:59.759Z,65.79
2018-04-28T23:15:27.195Z,65.28
2018-04-28T23:17:54.600Z,66.49
2018-04-28T23:20:22.018Z,65.57
2018-04-28T23:22:49.438Z,65.45
2018-04-28T23:25:16.839Z,64.92
2018-04-28T23:27:44.264Z,65.84
2018-04-28T23:30:11.688Z,65.33
2018-04-28T23:32:39.105Z,64.92
2018-04-28T23:35:06.537Z,64.78
2018-04-28T23:37:33.937Z,64.92
2018-04-28T23:40:01.349Z,64.64
2018-04-28T23:42:28.783Z,64.73
2018-04-28T23:44:56.192Z,64.60
2018-04-28T23:47:23.615Z,65.02
2018-04-28T23:49:51.024Z,65.84
2018-04-28T23:52:18.443Z,65.81
2018-04-28T23:54:45.863Z,65.71
2018-04-28T23:57:13.263Z,65.92
2018-04-28T23:59:40.704Z,64.95
